Time;durP1;ratioP1;P1;durP2;ratioP2;P2;SDS_P1;SDS_P2;PMS_P1;PMS_P2;Temp;Humidity;BMP_temperature;BMP_pressure;BME280_temperature;BME280_humidity;BME280_pressure;Samples;Min_cycle;Max_cycle;Signal;HPM_P1;HPM_P2
2022/04/27 00:01:53;;;;;;;;;6.00;3.50;;;;;-145.45;100.00;57426.63;5065189;27;45310;-80
2022/04/27 00:04:18;;;;;;;;;14.00;11.00;;;;;-145.45;100.00;57426.63;5072068;28;46920;-80
2022/04/27 00:06:44;;;;;;;;;17.00;13.50;;;;;-145.45;100.00;57426.63;5070515;27;44788;-80
2022/04/27 00:09:11;;;;;;;;;11.25;11.25;;;;;-145.45;100.00;57426.63;5072144;28;45485;-80
2022/04/27 00:11:37;;;;;;;;;10.00;10.00;;;;;-145.45;100.00;57426.63;5068928;27;45426;-80
2022/04/27 00:14:03;;;;;;;;;18.50;12.00;;;;;-145.45;100.00;57426.63;5063845;28;47450;-80
2022/04/27 00:16:29;;;;;;;;;11.75;10.75;;;;;-145.45;100.00;57426.63;5067507;27;45261;-82
2022/04/27 00:18:54;;;;;;;;;15.25;12.25;;;;;-145.45;100.00;57426.63;5064018;28;45713;-80
2022/04/27 00:21:20;;;;;;;;;12.25;12.00;;;;;-145.45;100.00;57426.63;5066516;27;45280;-81
2022/04/27 00:23:46;;;;;;;;;12.00;12.00;;;;;-145.45;100.00;57426.63;5065769;28;46054;-79
2022/04/27 00:26:12;;;;;;;;;16.00;15.25;;;;;-145.45;100.00;57426.63;5066307;27;45354;-80
2022/04/27 00:28:37;;;;;;;;;12.00;12.00;;;;;-145.45;100.00;57426.63;5064489;28;45212;-80
2022/04/27 00:31:03;;;;;;;;;15.75;13.00;;;;;-145.45;100.00;57426.63;5078292;28;45399;-80
2022/04/27 00:33:28;;;;;;;;;16.75;13.50;;;;;-145.45;100.00;57426.63;5079591;27;45268;-80
2022/04/27 00:35:53;;;;;;;;;17.75;13.25;;;;;-145.45;100.00;57426.63;5067308;27;45405;-80
2022/04/27 00:38:19;;;;;;;;;19.75;15.75;;;;;-145.45;100.00;57426.63;5062822;28;45033;-80
2022/04/27 00:40:45;;;;;;;;;13.50;12.75;;;;;-145.45;100.00;57426.63;5069803;28;45217;-82
2022/04/27 00:43:14;;;;;;;;;13.25;12.00;;;;;-145.45;100.00;57426.63;5071984;28;47205;-79
2022/04/27 00:45:39;;;;;;;;;16.50;13.00;;;;;-145.45;100.00;57426.63;5098530;27;45222;-80
2022/04/27 00:48:05;;;;;;;;;16.75;12.00;;;;;-145.45;100.00;57426.63;5071937;27;45257;-81
2022/04/27 00:50:31;;;;;;;;;18.25;15.50;;;;;-145.45;100.00;57426.63;5076357;28;45758;-81
2022/04/27 00:52:57;;;;;;;;;11.50;10.50;;;;;-145.45;100.00;57426.63;5072968;28;47232;-81
2022/04/27 00:55:22;;;;;;;;;18.00;13.00;;;;;-145.45;100.00;57426.63;5076371;28;45352;-80
2022/04/27 00:57:48;;;;;;;;;13.50;12.00;;;;;-145.45;100.00;57426.63;5067530;28;45266;-81
2022/04/27 01:00:15;;;;;;;;;15.50;13.50;;;;;-145.45;100.00;57426.63;5073805;28;45411;-80
2022/04/27 01:02:41;;;;;;;;;16.75;14.00;;;;;-145.45;100.00;57426.63;5068532;27;46386;-80
2022/04/27 01:05:11;;;;;;;;;14.00;13.25;;;;;-145.45;100.00;57426.63;5075860;28;45283;-82
2022/04/27 01:07:41;;;;;;;;;16.50;13.00;;;;;-145.45;100.00;57426.63;5071137;28;45335;-81
2022/04/27 01:10:08;;;;;;;;;16.25;15.00;;;;;-145.45;100.00;57426.63;5072792;28;45013;-83
2022/04/27 01:12:35;;;;;;;;;13.50;13.00;;;;;-145.45;100.00;57426.63;5070207;28;47992;-80
2022/04/27 01:15:00;;;;;;;;;16.50;15.75;;;;;-145.45;100.00;57426.63;5077788;28;45227;-81
2022/04/27 01:17:25;;;;;;;;;12.75;11.00;;;;;-145.45;100.00;57426.63;5079418;27;45858;-80
2022/04/27 01:19:51;;;;;;;;;17.00;14.50;;;;;-145.45;100.00;57426.63;5079085;27;45604;-80
2022/04/27 01:22:16;;;;;;;;;18.50;13.25;;;;;-145.45;100.00;57426.63;5061372;27;45379;-81
2022/04/27 01:24:44;;;;;;;;;20.00;18.75;;;;;-145.45;100.00;57426.63;5067039;28;45477;-79
2022/04/27 01:27:09;;;;;;;;;21.75;20.50;;;;;-145.45;100.00;57426.63;5063730;28;45323;-81
2022/04/27 01:29:35;;;;;;;;;16.75;16.75;;;;;-145.45;100.00;57426.63;5067255;28;45285;-81
2022/04/27 01:32:01;;;;;;;;;17.50;16.25;;;;;-145.45;100.00;57426.63;5062239;28;45802;-81
2022/04/27 01:34:27;;;;;;;;;16.00;14.75;;;;;-145.45;100.00;57426.63;5077292;28;45323;-80
2022/04/27 01:36:54;;;;;;;;;14.75;13.50;;;;;-145.45;100.00;57426.63;5070150;28;45228;-80
2022/04/27 01:39:23;;;;;;;;;12.50;10.25;;;;;-145.45;100.00;57426.63;5070214;28;45382;-80
2022/04/27 01:41:49;;;;;;;;;17.00;15.00;;;;;-145.45;100.00;57426.63;5063957;28;45467;-80
2022/04/27 01:44:14;;;;;;;;;18.75;15.50;;;;;-145.45;100.00;57426.63;5071497;28;45295;-79
2022/04/27 01:46:39;;;;;;;;;19.25;16.75;;;;;-145.45;100.00;57426.63;5069793;27;45250;-79
2022/04/27 01:49:05;;;;;;;;;15.00;11.25;;;;;-145.45;100.00;57426.63;5070249;28;45464;-79
2022/04/27 01:54:17;;;;;;;;;15.75;11.50;;;;;-145.45;100.00;57426.63;5081381;28;46158;-79
2022/04/27 01:56:47;;;;;;;;;15.00;14.75;;;;;-145.45;100.00;57426.63;5078791;27;45189;-79
2022/04/27 01:59:13;;;;;;;;;23.25;17.25;;;;;-145.45;100.00;57426.63;5071725;28;45315;-79
2022/04/27 02:01:39;;;;;;;;;17.00;15.50;;;;;-145.45;100.00;57426.63;5070096;27;45298;-80
2022/04/27 02:04:04;;;;;;;;;19.50;17.75;;;;;-145.45;100.00;57426.63;5070558;28;45362;-79
2022/04/27 02:06:30;;;;;;;;;21.00;16.75;;;;;-145.45;100.00;57426.63;5074495;27;45310;-79
2022/04/27 02:08:55;;;;;;;;;19.75;17.75;;;;;-145.45;100.00;57426.63;5069221;28;45248;-80
2022/04/27 02:11:24;;;;;;;;;21.50;19.00;;;;;-145.45;100.00;57426.63;5071880;28;45305;-79
2022/04/27 02:13:54;;;;;;;;;19.25;17.75;;;;;-145.45;100.00;57426.63;5079524;28;45268;-80
2022/04/27 02:16:21;;;;;;;;;19.25;17.00;;;;;-145.45;100.00;57426.63;5071518;27;45349;-80
2022/04/27 02:18:48;;;;;;;;;18.00;17.00;;;;;-145.45;100.00;57426.63;5067694;28;45390;-78
2022/04/27 02:21:14;;;;;;;;;21.50;17.50;;;;;-145.45;100.00;57426.63;5076646;27;45399;-80
2022/04/27 02:23:40;;;;;;;;;21.25;17.25;;;;;-145.45;100.00;57426.63;5081648;27;45349;-79
2022/04/27 02:26:05;;;;;;;;;23.50;21.25;;;;;-145.45;100.00;57426.63;5077793;27;45239;-79
2022/04/27 02:28:30;;;;;;;;;23.75;20.00;;;;;-145.45;100.00;57426.63;5065759;28;45169;-80
2022/04/27 02:30:56;;;;;;;;;16.75;15.25;;;;;-145.45;100.00;57426.63;5081321;27;45451;-80
2022/04/27 02:33:21;;;;;;;;;19.75;19.75;;;;;-145.45;100.00;57426.63;5084193;27;45465;-80
2022/04/27 02:35:46;;;;;;;;;20.50;18.75;;;;;-145.45;100.00;57426.63;5071723;27;45488;-81
2022/04/27 02:38:11;;;;;;;;;22.75;18.50;;;;;-145.45;100.00;57426.63;5063476;28;45316;-80
2022/04/27 02:40:37;;;;;;;;;27.75;23.50;;;;;-145.45;100.00;57426.63;5071095;27;44999;-79
2022/04/27 02:43:02;;;;;;;;;20.25;15.75;;;;;-145.45;100.00;57426.63;5061960;28;45572;-81
2022/04/27 02:45:27;;;;;;;;;22.00;20.00;;;;;-145.45;100.00;57426.63;5066469;27;45592;-81
2022/04/27 02:47:53;;;;;;;;;29.75;23.75;;;;;-145.45;100.00;57426.63;5071484;27;45469;-80
2022/04/27 02:53:02;;;;;;;;;23.50;18.25;;;;;-145.45;100.00;57426.63;5062908;28;45351;-81
2022/04/27 02:55:28;;;;;;;;;23.75;22.50;;;;;-145.45;100.00;57426.63;5093962;27;45329;-81
2022/04/27 02:57:53;;;;;;;;;21.25;19.50;;;;;-145.45;100.00;57426.63;5069138;27;45361;-81
2022/04/27 03:00:18;;;;;;;;;24.00;22.75;;;;;-145.45;100.00;57426.63;5078390;28;46164;-82
2022/04/27 03:02:44;;;;;;;;;24.75;22.75;;;;;-145.45;100.00;57426.63;5061067;28;45284;-81
2022/04/27 03:05:09;;;;;;;;;26.75;21.75;;;;;-145.45;100.00;57426.63;5073281;28;45992;-81
2022/04/27 03:07:35;;;;;;;;;28.00;25.75;;;;;-145.45;100.00;57426.63;5060959;28;45437;-81
2022/04/27 03:10:00;;;;;;;;;28.25;22.25;;;;;-145.45;100.00;57426.63;5076858;28;45370;-81
2022/04/27 03:12:26;;;;;;;;;22.00;21.25;;;;;-145.45;100.00;57426.63;5081487;27;45281;-81
2022/04/27 03:14:51;;;;;;;;;25.75;24.00;;;;;-145.45;100.00;57426.63;5079415;28;45658;-80
2022/04/27 03:17:17;;;;;;;;;25.00;23.25;;;;;-145.45;100.00;57426.63;5063995;27;45269;-80
2022/04/27 03:19:42;;;;;;;;;22.50;18.00;;;;;-145.45;100.00;57426.63;5070202;28;45825;-80
2022/04/27 03:22:08;;;;;;;;;22.25;20.00;;;;;-145.45;100.00;57426.63;5066427;28;45210;-80
2022/04/27 03:24:34;;;;;;;;;30.00;25.75;;;;;-145.45;100.00;57426.63;5068699;28;45210;-80
2022/04/27 03:27:00;;;;;;;;;31.75;26.50;;;;;-145.45;100.00;57426.63;5064315;28;45282;-81
2022/04/27 03:29:25;;;;;;;;;36.00;29.50;;;;;-145.45;100.00;57426.63;5068513;28;45422;-81
2022/04/27 03:31:50;;;;;;;;;26.50;25.00;;;;;-145.45;100.00;57426.63;5078867;27;45602;-80
2022/04/27 03:34:16;;;;;;;;;32.75;24.75;;;;;-145.45;100.00;57426.63;5076644;28;45410;-81
2022/04/27 03:36:41;;;;;;;;;22.50;20.00;;;;;-145.45;100.00;57426.63;5068630;27;45333;-81
2022/04/27 03:39:06;;;;;;;;;31.25;25.00;;;;;-145.45;100.00;57426.63;5061910;28;47007;-80
2022/04/27 03:41:32;;;;;;;;;27.75;26.50;;;;;-145.45;100.00;57426.63;5069051;27;45262;-80
2022/04/27 03:43:57;;;;;;;;;29.25;23.00;;;;;-145.45;100.00;57426.63;5063925;28;45713;-80
2022/04/27 03:46:22;;;;;;;;;28.25;27.00;;;;;-145.45;100.00;57426.63;5077611;28;45444;-80
2022/04/27 03:48:48;;;;;;;;;28.75;25.25;;;;;-145.45;100.00;57426.63;5066965;27;45262;-81
2022/04/27 03:51:13;;;;;;;;;32.75;23.75;;;;;-145.45;100.00;57426.63;5071128;27;45333;-80
2022/04/27 03:53:39;;;;;;;;;27.75;24.50;;;;;-145.45;100.00;57426.63;5064559;28;45309;-80
2022/04/27 03:56:06;;;;;;;;;33.25;26.00;;;;;-145.45;100.00;57426.63;5078097;28;45342;-80
2022/04/27 03:58:32;;;;;;;;;32.25;27.00;;;;;-145.45;100.00;57426.63;5062556;28;45256;-80
2022/04/27 04:00:57;;;;;;;;;32.50;28.25;;;;;-145.45;100.00;57426.63;5073137;28;45481;-80
2022/04/27 04:03:23;;;;;;;;;35.75;28.75;;;;;-145.45;100.00;57426.63;5077668;27;45319;-80
2022/04/27 04:05:48;;;;;;;;;28.50;23.25;;;;;-145.45;100.00;57426.63;5068923;28;46917;-80
2022/04/27 04:08:13;;;;;;;;;34.50;28.50;;;;;-145.45;100.00;57426.63;5062216;28;47121;-79
2022/04/27 04:10:39;;;;;;;;;36.25;28.75;;;;;-145.45;100.00;57426.63;5073294;27;45182;-80
2022/04/27 04:13:05;;;;;;;;;35.75;29.50;;;;;-145.45;100.00;57426.63;5062584;28;45240;-80
2022/04/27 04:15:31;;;;;;;;;31.75;28.25;;;;;-145.45;100.00;57426.63;5071971;27;45920;-80
2022/04/27 04:17:56;;;;;;;;;40.50;29.75;;;;;-145.45;100.00;57426.63;5062542;27;45592;-80
2022/04/27 04:20:22;;;;;;;;;38.00;32.75;;;;;-145.45;100.00;57426.63;5069427;28;45398;-80
2022/04/27 04:22:47;;;;;;;;;32.00;29.75;;;;;-145.45;100.00;57426.63;5074936;28;44817;-80
2022/04/27 04:30:42;;;;;;;;;36.00;32.50;;;;;-145.45;100.00;57426.63;5077508;28;45536;-79
2022/04/27 04:33:08;;;;;;;;;33.25;29.75;;;;;-145.45;100.00;57426.63;5079117;27;45379;-80
2022/04/27 04:35:35;;;;;;;;;31.75;29.00;;;;;-145.45;100.00;57426.63;5069225;27;45448;-80
2022/04/27 04:38:02;;;;;;;;;35.00;29.50;;;;;-145.45;100.00;57426.63;5059252;28;45362;-80
2022/04/27 04:40:27;;;;;;;;;38.75;26.75;;;;;-145.45;100.00;57426.63;5068491;28;45271;-76
2022/04/27 04:42:53;;;;;;;;;35.50;32.75;;;;;-145.45;100.00;57426.63;5059405;28;45244;-76
2022/04/27 04:45:19;;;;;;;;;36.50;31.00;;;;;-145.45;100.00;57426.63;5076452;28;45386;-75
2022/04/27 04:47:44;;;;;;;;;41.50;31.25;;;;;-145.45;100.00;57426.63;5058704;28;45358;-75
2022/04/27 04:50:11;;;;;;;;;37.50;33.00;;;;;-145.45;100.00;57426.63;5075972;28;44789;-77
2022/04/27 04:52:36;;;;;;;;;35.00;31.00;;;;;-145.45;100.00;57426.63;5061933;28;45431;-75
2022/04/27 04:55:02;;;;;;;;;37.25;36.00;;;;;-145.45;100.00;57426.63;5072542;28;45382;-76
2022/04/27 04:57:28;;;;;;;;;31.50;26.50;;;;;-145.45;100.00;57426.63;5068996;28;45263;-77
2022/04/27 04:59:53;;;;;;;;;35.25;31.50;;;;;-145.45;100.00;57426.63;5072902;28;45405;-74
2022/04/27 05:02:19;;;;;;;;;35.25;31.75;;;;;-145.45;100.00;57426.63;5061155;27;45545;-77
2022/04/27 05:04:44;;;;;;;;;37.75;34.25;;;;;-145.45;100.00;57426.63;5070799;28;45411;-76
2022/04/27 05:07:10;;;;;;;;;43.25;37.00;;;;;-145.45;100.00;57426.63;5057875;28;45363;-78
2022/04/27 05:09:35;;;;;;;;;36.25;32.25;;;;;-145.45;100.00;57426.63;5069721;28;45711;-75
2022/04/27 05:12:01;;;;;;;;;33.75;33.25;;;;;-145.45;100.00;57426.63;5079747;28;45307;-75
2022/04/27 05:14:26;;;;;;;;;46.25;33.00;;;;;-145.45;100.00;57426.63;5092763;27;46152;-76
2022/04/27 05:16:51;;;;;;;;;29.25;26.50;;;;;-145.45;100.00;57426.63;5074278;28;47032;-76
2022/04/27 05:19:17;;;;;;;;;43.50;35.75;;;;;-145.45;100.00;57426.63;5081119;27;45486;-78
2022/04/27 05:21:42;;;;;;;;;33.75;30.25;;;;;-145.45;100.00;57426.63;5070376;28;45502;-76
2022/04/27 05:24:07;;;;;;;;;33.00;32.00;;;;;-145.45;100.00;57426.63;5077138;27;45519;-76
2022/04/27 05:26:32;;;;;;;;;42.25;34.50;;;;;-145.45;100.00;57426.63;5073144;28;45958;-76
2022/04/27 05:31:54;;;;;;;;;37.50;31.50;;;;;-145.45;100.00;57426.63;5072800;28;45623;-76
2022/04/27 05:34:19;;;;;;;;;41.00;35.25;;;;;-145.45;100.00;57426.63;5069773;28;45248;-75
2022/04/27 05:36:45;;;;;;;;;39.25;33.50;;;;;-145.45;100.00;57426.63;5063983;28;45244;-76
2022/04/27 05:39:10;;;;;;;;;33.50;33.25;;;;;-145.45;100.00;57426.63;5069526;28;45367;-75
2022/04/27 05:41:35;;;;;;;;;41.00;35.25;;;;;-145.45;100.00;57426.63;5063139;28;45232;-74
2022/04/27 05:44:04;;;;;;;;;37.75;31.50;;;;;-145.45;100.00;57426.63;5068578;28;45510;-75
2022/04/27 05:46:29;;;;;;;;;42.00;34.00;;;;;-145.45;100.00;57426.63;5070994;27;45331;-75
2022/04/27 05:48:55;;;;;;;;;36.00;30.75;;;;;-145.45;100.00;57426.63;5067543;28;45493;-75
2022/04/27 05:51:20;;;;;;;;;43.00;34.75;;;;;-145.45;100.00;57426.63;5072524;27;45374;-74
2022/04/27 05:53:45;;;;;;;;;42.00;35.50;;;;;-145.45;100.00;57426.63;5066371;28;45286;-75
2022/04/27 05:56:12;;;;;;;;;45.00;35.25;;;;;-145.45;100.00;57426.63;5068046;28;45352;-75
2022/04/27 05:58:38;;;;;;;;;42.50;36.25;;;;;-145.45;100.00;57426.63;5066135;28;45461;-74
2022/04/27 06:01:04;;;;;;;;;32.25;28.25;;;;;-145.45;100.00;57426.63;5076427;27;45426;-75
2022/04/27 06:03:30;;;;;;;;;36.75;33.50;;;;;-145.45;100.00;57426.63;5067253;27;45901;-75
2022/04/27 06:05:55;;;;;;;;;40.00;33.75;;;;;-145.45;100.00;57426.63;5076121;27;46184;-74
2022/04/27 06:08:20;;;;;;;;;47.50;35.25;;;;;-145.45;100.00;57426.63;5065632;27;45298;-75
2022/04/27 06:10:46;;;;;;;;;44.75;34.00;;;;;-145.45;100.00;57426.63;5068840;28;45209;-75
2022/04/27 06:13:11;;;;;;;;;38.25;35.00;;;;;-145.45;100.00;57426.63;5063577;27;45170;-74
2022/04/27 06:15:36;;;;;;;;;38.75;35.00;;;;;-145.45;100.00;57426.63;5073142;27;45327;-75
2022/04/27 06:18:02;;;;;;;;;38.75;35.25;;;;;-145.45;100.00;57426.63;5062718;27;45344;-76
2022/04/27 06:20:27;;;;;;;;;40.00;35.25;;;;;-145.45;100.00;57426.63;5074862;28;45412;-75
2022/04/27 06:22:53;;;;;;;;;45.75;39.25;;;;;-145.45;100.00;57426.63;5080018;27;47302;-74
2022/04/27 06:25:19;;;;;;;;;38.50;34.50;;;;;-145.45;100.00;57426.63;5078824;28;47261;-75
2022/04/27 06:27:44;;;;;;;;;38.25;34.50;;;;;-145.45;100.00;57426.63;5066149;28;45304;-75
2022/04/27 06:30:10;;;;;;;;;33.25;27.50;;;;;-145.45;100.00;57426.63;5072071;27;45375;-75
2022/04/27 06:32:36;;;;;;;;;44.00;35.00;;;;;-145.45;100.00;57426.63;5063004;28;45327;-75
2022/04/27 06:35:02;;;;;;;;;36.75;32.25;;;;;-145.45;100.00;57426.63;5068533;28;45514;-75
2022/04/27 06:37:27;;;;;;;;;42.75;35.00;;;;;-145.45;100.00;57426.63;5061197;28;45257;-75
2022/04/27 06:39:53;;;;;;;;;38.25;31.50;;;;;-145.45;100.00;57426.63;5073886;28;45335;-75
2022/04/27 06:42:22;;;;;;;;;42.00;37.00;;;;;-145.45;100.00;57426.63;5070064;28;45905;-74
2022/04/27 06:44:48;;;;;;;;;36.25;33.00;;;;;-145.45;100.00;57426.63;5073371;28;45468;-74
2022/04/27 06:47:14;;;;;;;;;52.50;39.50;;;;;-145.45;100.00;57426.63;5062278;28;45554;-75
2022/04/27 06:49:40;;;;;;;;;38.75;33.75;;;;;-145.45;100.00;57426.63;5072852;28;45456;-74
2022/04/27 06:52:05;;;;;;;;;40.75;37.25;;;;;-145.45;100.00;57426.63;5082640;27;47089;-75
2022/04/27 06:54:31;;;;;;;;;40.25;34.50;;;;;-145.45;100.00;57426.63;5071641;28;46114;-75
2022/04/27 06:56:57;;;;;;;;;42.50;36.00;;;;;-145.45;100.00;57426.63;5074966;28;45276;-75
2022/04/27 06:59:22;;;;;;;;;43.50;36.75;;;;;-145.45;100.00;57426.63;5070522;28;45320;-74
2022/04/27 07:01:48;;;;;;;;;42.25;33.75;;;;;-145.45;100.00;57426.63;5071729;27;45171;-75
2022/04/27 07:04:13;;;;;;;;;37.00;34.00;;;;;-145.45;100.00;57426.63;5069059;28;45406;-74
2022/04/27 07:06:39;;;;;;;;;44.25;36.75;;;;;-145.45;100.00;57426.63;5070967;27;45252;-74
2022/04/27 07:09:07;;;;;;;;;39.00;33.00;;;;;-145.45;100.00;57426.63;5078577;28;45479;-74
2022/04/27 07:11:33;;;;;;;;;34.50;31.00;;;;;-145.45;100.00;57426.63;5093400;27;47248;-75
2022/04/27 07:13:58;;;;;;;;;42.50;33.75;;;;;-145.45;100.00;57426.63;5069879;28;45389;-74
2022/04/27 07:16:23;;;;;;;;;34.00;32.75;;;;;-145.45;100.00;57426.63;5094122;27;67057;-74
2022/04/27 07:18:50;;;;;;;;;37.75;33.75;;;;;-145.45;100.00;57426.63;5068693;28;58195;-72
2022/04/27 07:21:15;;;;;;;;;31.25;26.25;;;;;-145.45;100.00;57426.63;5061088;28;45378;-73
2022/04/27 07:23:40;;;;;;;;;42.25;33.25;;;;;-145.45;100.00;57426.63;5064377;28;46023;-71
2022/04/27 07:26:08;;;;;;;;;48.75;35.50;;;;;-145.45;100.00;57426.63;5064982;28;73230;-72
2022/04/27 07:28:38;;;;;;;;;39.75;33.50;;;;;-145.45;100.00;57426.63;5072085;27;49866;-72
2022/04/27 07:31:04;;;;;;;;;33.00;30.25;;;;;-145.45;100.00;57426.63;5059874;28;45520;-74
2022/04/27 07:33:29;;;;;;;;;32.00;30.75;;;;;-145.45;100.00;57426.63;5066248;28;45354;-71
2022/04/27 07:35:55;;;;;;;;;46.00;34.75;;;;;-145.45;100.00;57426.63;5065155;27;45387;-74
2022/04/27 07:38:20;;;;;;;;;47.75;34.25;;;;;-145.45;100.00;57426.63;5060285;28;52765;-70
2022/04/27 07:40:46;;;;;;;;;38.50;34.00;;;;;-145.45;100.00;57426.63;5077383;27;45407;-72
2022/04/27 07:43:11;;;;;;;;;37.75;32.75;;;;;-145.45;100.00;57426.63;5059837;28;45472;-77
2022/04/27 07:45:37;;;;;;;;;42.25;35.25;;;;;-145.45;100.00;57426.63;5078695;27;45571;-72
2022/04/27 07:48:02;;;;;;;;;34.75;30.00;;;;;-145.45;100.00;57426.63;5059063;28;45296;-74
2022/04/27 07:50:28;;;;;;;;;39.75;34.75;;;;;-145.45;100.00;57426.63;5076128;28;45333;-74
2022/04/27 07:52:56;;;;;;;;;38.75;35.25;;;;;-145.45;100.00;57426.63;5068098;27;56222;-75
2022/04/27 07:55:21;;;;;;;;;43.50;34.75;;;;;-145.45;100.00;57426.63;5076399;28;45573;-75
2022/04/27 07:57:47;;;;;;;;;40.75;34.75;;;;;-145.45;100.00;57426.63;5067545;28;67936;-74
2022/04/27 08:00:13;;;;;;;;;41.50;34.00;;;;;-145.45;100.00;57426.63;5076265;28;45281;-74
2022/04/27 08:02:39;;;;;;;;;37.00;31.25;;;;;-145.45;100.00;57426.63;5068839;28;48262;-75
2022/04/27 08:05:05;;;;;;;;;44.50;34.50;;;;;-145.45;100.00;57426.63;5077258;27;45424;-74
2022/04/27 08:07:43;;;;;;;;;38.00;33.75;;;;;-145.45;100.00;57426.63;5060093;27;45316;-73
2022/04/27 08:10:14;;;;;;;;;43.25;33.75;;;;;-145.45;100.00;57426.63;5069324;28;45501;-74
2022/04/27 08:12:43;;;;;;;;;38.75;33.00;;;;;-145.45;100.00;57426.63;5058093;28;46267;-75
2022/04/27 08:15:09;;;;;;;;;38.75;34.75;;;;;-145.45;100.00;57426.63;5071064;27;45434;-74
2022/04/27 08:17:35;;;;;;;;;40.50;33.50;;;;;-145.45;100.00;57426.63;5064332;28;45358;-74
2022/04/27 08:22:44;;;;;;;;;38.00;33.00;;;;;-145.45;100.00;57426.63;5058725;28;45396;-72
2022/04/27 08:25:10;;;;;;;;;37.50;34.00;;;;;-145.45;100.00;57426.63;5067169;28;45318;-74
2022/04/27 08:27:35;;;;;;;;;41.00;33.50;;;;;-145.45;100.00;57426.63;5063960;28;45374;-73
2022/04/27 08:30:01;;;;;;;;;39.75;33.00;;;;;-145.45;100.00;57426.63;5069245;27;49527;-74
2022/04/27 08:32:27;;;;;;;;;36.75;32.25;;;;;-145.45;100.00;57426.63;5072067;28;45671;-74
2022/04/27 08:34:52;;;;;;;;;40.50;35.25;;;;;-145.45;100.00;57426.63;5077212;28;45857;-74
2022/04/27 08:37:17;;;;;;;;;41.00;34.50;;;;;-145.45;100.00;57426.63;5062791;27;48125;-74
2022/04/27 08:39:43;;;;;;;;;38.00;32.25;;;;;-145.45;100.00;57426.63;5070499;28;65907;-74
2022/04/27 08:42:09;;;;;;;;;39.50;33.25;;;;;-145.45;100.00;57426.63;5062510;27;58626;-75
2022/04/27 08:44:35;;;;;;;;;37.75;33.00;;;;;-145.45;100.00;57426.63;5064313;28;45385;-75
2022/04/27 08:47:04;;;;;;;;;35.75;32.50;;;;;-145.45;100.00;57426.63;5064104;27;45462;-75
2022/04/27 08:49:33;;;;;;;;;37.75;32.25;;;;;-145.45;100.00;57426.63;5068305;28;45450;-75
2022/04/27 08:52:01;;;;;;;;;42.25;33.50;;;;;-145.45;100.00;57426.63;5074100;28;46259;-75
2022/04/27 08:54:27;;;;;;;;;45.00;35.50;;;;;-145.45;100.00;57426.63;5073126;28;45461;-75
2022/04/27 08:56:53;;;;;;;;;40.50;34.50;;;;;-145.45;100.00;57426.63;5061352;28;45460;-74
2022/04/27 08:59:19;;;;;;;;;34.33;32.00;;;;;-145.45;100.00;57426.63;5073615;28;46126;-75
2022/04/27 09:01:44;;;;;;;;;40.25;34.75;;;;;-145.45;100.00;57426.63;5060696;28;46342;-75
2022/04/27 09:04:15;;;;;;;;;37.00;31.33;;;;;-145.45;100.00;57426.63;5070636;28;45395;-74
2022/04/27 09:06:41;;;;;;;;;39.67;33.33;;;;;-145.45;100.00;57426.63;5062613;28;45885;-74
2022/04/27 09:09:13;;;;;;;;;41.50;34.00;;;;;-145.45;100.00;57426.63;5073330;28;47207;-74
2022/04/27 09:11:39;;;;;;;;;43.67;33.00;;;;;-145.45;100.00;57426.63;5061633;28;47438;-74
2022/04/27 09:14:07;;;;;;;;;39.00;32.00;;;;;-145.45;100.00;57426.63;5061580;28;45497;-74
2022/04/27 09:22:08;;;;;;;;;40.33;32.33;;;;;-145.45;100.00;57426.63;5073341;28;45457;-75
2022/04/27 09:24:51;;;;;;;;;39.67;33.00;;;;;-145.45;100.00;57426.63;5071995;27;45407;-76
2022/04/27 09:27:22;;;;;;;;;37.00;31.75;;;;;-145.45;100.00;57426.63;5072235;28;45483;-75
2022/04/27 09:30:01;;;;;;;;;37.33;32.67;;;;;-145.45;100.00;57426.63;5068230;28;45950;-75
2022/04/27 09:32:27;;;;;;;;;37.67;33.67;;;;;-145.45;100.00;57426.63;5057784;28;46685;-75
2022/04/27 09:34:53;;;;;;;;;34.33;30.00;;;;;-145.45;100.00;57426.63;5069961;28;45458;-75
2022/04/27 09:37:21;;;;;;;;;38.33;35.00;;;;;-145.45;100.00;57426.63;5069347;28;45482;-76
2022/04/27 09:40:09;;;;;;;;;35.67;32.33;;;;;-145.45;100.00;57426.63;5070390;28;45484;-75
2022/04/27 09:42:36;;;;;;;;;38.67;32.33;;;;;-145.45;100.00;57426.63;5062231;28;45428;-75
2022/04/27 09:45:15;;;;;;;;;40.00;34.00;;;;;-145.45;100.00;57426.63;5071659;28;45490;-75
2022/04/27 09:48:13;;;;;;;;;35.00;30.00;;;;;-145.45;100.00;57426.63;5057335;28;45374;-74
2022/04/27 09:50:58;;;;;;;;;35.33;31.00;;;;;-145.45;100.00;57426.63;5075341;27;45851;-75
2022/04/27 09:53:24;;;;;;;;;43.33;35.67;;;;;-145.45;100.00;57426.63;5071403;28;47996;-75
2022/04/27 09:55:52;;;;;;;;;29.00;29.00;;;;;-145.45;100.00;57426.63;5064676;28;45231;-75
2022/04/27 09:58:22;;;;;;;;;34.33;31.00;;;;;-145.45;100.00;57426.63;5061399;28;45445;-75
2022/04/27 10:00:51;;;;;;;;;34.33;31.67;;;;;-145.45;100.00;57426.63;5065209;27;45513;-75
2022/04/27 10:03:18;;;;;;;;;44.33;33.67;;;;;-145.45;100.00;57426.63;5060751;28;45543;-74
2022/04/27 10:05:45;;;;;;;;;44.67;35.67;;;;;-145.45;100.00;57426.63;5065820;28;45420;-74
2022/04/27 10:08:11;;;;;;;;;47.33;37.00;;;;;-145.45;100.00;57426.63;5074693;27;45396;-74
2022/04/27 10:10:38;;;;;;;;;38.00;34.33;;;;;-145.45;100.00;57426.63;5070709;27;45400;-74
2022/04/27 10:13:08;;;;;;;;;37.00;32.67;;;;;-145.45;100.00;57426.63;5077491;28;47373;-74
2022/04/27 10:15:34;;;;;;;;;43.33;35.33;;;;;-145.45;100.00;57426.63;5084401;27;45791;-72
2022/04/27 10:18:00;;;;;;;;;40.33;35.00;;;;;-145.45;100.00;57426.63;5059928;28;45435;-73
2022/04/27 10:20:35;;;;;;;;;36.67;32.67;;;;;-145.45;100.00;57426.63;5070199;28;45454;-75
2022/04/27 10:23:33;;;;;;;;;43.33;36.67;;;;;-145.45;100.00;57426.63;5074868;28;46128;-74
2022/04/27 10:26:30;;;;;;;;;50.67;40.00;;;;;-145.45;100.00;57426.63;5069826;28;45445;-74
2022/04/27 10:28:57;;;;;;;;;41.00;36.00;;;;;-145.45;100.00;57426.63;5080022;27;45401;-75
2022/04/27 10:31:41;;;;;;;;;47.00;38.67;;;;;-145.45;100.00;57426.63;5074382;28;46502;-74
2022/04/27 10:34:15;;;;;;;;;34.67;30.00;;;;;-145.45;100.00;57426.63;5067514;28;46174;-75
2022/04/27 10:36:40;;;;;;;;;44.33;31.67;;;;;-145.45;100.00;57426.63;5072459;28;45375;-73
2022/04/27 10:39:12;;;;;;;;;40.67;32.67;;;;;-145.45;100.00;57426.63;5078741;28;45292;-74
2022/04/27 10:41:42;;;;;;;;;32.67;29.33;;;;;-145.45;100.00;57426.63;5078611;28;45840;-74
2022/04/27 10:44:07;;;;;;;;;38.67;32.67;;;;;-145.45;100.00;57426.63;5066637;28;46388;-73
2022/04/27 10:46:41;;;;;;;;;31.00;28.00;;;;;-145.45;100.00;57426.63;5069937;27;45797;-74
2022/04/27 10:49:23;;;;;;;;;40.00;34.67;;;;;-145.45;100.00;57426.63;5068088;28;45351;-74
2022/04/27 10:52:05;;;;;;;;;42.00;37.33;;;;;-145.45;100.00;57426.63;5054084;28;45305;-74
2022/04/27 10:54:33;;;;;;;;;38.00;33.67;;;;;-145.45;100.00;57426.63;5075854;28;47216;-73
2022/04/27 10:57:16;;;;;;;;;36.00;32.33;;;;;-145.45;100.00;57426.63;5074962;28;45206;-74
2022/04/27 10:59:43;;;;;;;;;30.00;29.67;;;;;-145.45;100.00;57426.63;5064888;28;45548;-74
2022/04/27 11:02:31;;;;;;;;;36.00;31.33;;;;;-145.45;100.00;57426.63;5064470;28;47245;-73
2022/04/27 11:04:56;;;;;;;;;31.33;25.33;;;;;-145.45;100.00;57426.63;5070767;28;45255;-73
2022/04/27 11:07:37;;;;;;;;;28.33;26.00;;;;;-145.45;100.00;57426.63;5075136;28;45565;-76
2022/04/27 11:10:20;;;;;;;;;32.00;30.67;;;;;-145.45;100.00;57426.63;5069250;28;45319;-76
2022/04/27 11:12:53;;;;;;;;;28.33;25.67;;;;;-145.45;100.00;57426.63;5072012;28;46415;-76
2022/04/27 11:15:23;;;;;;;;;30.67;26.00;;;;;-145.45;100.00;57426.63;5079163;27;45436;-75
2022/04/27 11:17:55;;;;;;;;;30.33;28.67;;;;;-145.45;100.00;57426.63;5075147;28;45263;-80